createdAt,value
2018-12-12T00:00:39.896Z,0.90
2018-12-12T00:01:39.898Z,0.90
2018-12-12T00:02:39.899Z,1.00
2018-12-12T00:03:39.900Z,0.80
2018-12-12T00:04:39.903Z,0.80
2018-12-12T00:05:39.905Z,0.80
2018-12-12T00:06:39.908Z,0.80
2018-12-12T00:07:39.903Z,0.70
2018-12-12T00:08:39.908Z,0.70
2018-12-12T00:09:39.910Z,0.90
2018-12-12T00:10:39.912Z,0.80
2018-12-12T00:11:39.912Z,0.90
2018-12-12T00:12:39.911Z,0.70
2018-12-12T00:13:39.916Z,0.70
2018-12-12T00:14:39.917Z,0.80
2018-12-12T00:15:40.693Z,1.00
2018-12-12T00:16:39.919Z,0.70
2018-12-12T00:17:39.923Z,0.60
2018-12-12T00:18:39.925Z,0.80
2018-12-12T00:19:39.924Z,0.80
2018-12-12T00:20:39.925Z,0.80
2018-12-12T00:21:39.929Z,0.80
2018-12-12T00:22:39.930Z,0.70
2018-12-12T00:23:39.927Z,0.70
2018-12-12T00:24:39.929Z,0.80
2018-12-12T00:25:39.936Z,0.70
2018-12-12T00:26:39.933Z,0.70
2018-12-12T00:27:39.936Z,0.80
2018-12-12T00:28:39.936Z,0.70
2018-12-12T00:29:39.943Z,0.70
2018-12-12T00:30:39.946Z,0.80
2018-12-12T00:31:39.940Z,0.80
2018-12-12T00:32:39.942Z,0.90
2018-12-12T00:33:39.944Z,0.80
2018-12-12T00:34:39.945Z,0.70
2018-12-12T00:35:41.069Z,0.70
2018-12-12T00:36:39.950Z,0.70
2018-12-12T00:37:39.953Z,0.70
2018-12-12T00:38:40.003Z,0.80
2018-12-12T00:39:39.950Z,0.90
2018-12-12T00:40:39.958Z,1.00
2018-12-12T00:41:39.957Z,0.80
2018-12-12T00:42:39.958Z,0.70
2018-12-12T00:43:39.961Z,0.80
2018-12-12T00:44:39.963Z,0.70
2018-12-12T00:45:39.961Z,0.70
2018-12-12T00:46:39.961Z,0.70
2018-12-12T00:47:39.966Z,0.80
2018-12-12T00:48:39.965Z,0.70
2018-12-12T00:49:39.965Z,0.90
2018-12-12T00:50:39.969Z,0.70
2018-12-12T00:51:39.974Z,0.80
2018-12-12T00:52:39.970Z,0.90
2018-12-12T00:53:39.973Z,0.80
2018-12-12T00:54:39.974Z,0.70
2018-12-12T00:55:39.975Z,0.60
2018-12-12T00:56:39.979Z,0.70
2018-12-12T00:57:39.977Z,0.70
2018-12-12T00:58:39.982Z,0.70
2018-12-12T00:59:39.981Z,0.70
2018-12-12T01:00:39.981Z,0.70
2018-12-12T01:01:39.988Z,0.80
2018-12-12T01:02:39.985Z,0.70
2018-12-12T01:03:39.984Z,0.70
2018-12-12T01:04:39.987Z,0.70
2018-12-12T01:05:39.987Z,0.90
2018-12-12T01:06:39.994Z,0.60
2018-12-12T01:07:39.990Z,0.70
2018-12-12T01:08:39.996Z,0.70
2018-12-12T01:09:39.993Z,0.80
2018-12-12T01:10:39.998Z,0.80
2018-12-12T01:11:39.996Z,0.60
2018-12-12T01:12:39.997Z,0.70
2018-12-12T01:13:39.999Z,0.80
2018-12-12T01:14:40.001Z,0.70
2018-12-12T01:15:40.001Z,0.70
2018-12-12T01:16:40.003Z,0.70
2018-12-12T01:17:40.006Z,0.70
2018-12-12T01:18:40.005Z,0.80
2018-12-12T01:19:40.006Z,0.80
2018-12-12T01:20:40.009Z,0.70
2018-12-12T01:21:40.015Z,0.70
2018-12-12T01:22:40.020Z,0.80
2018-12-12T01:23:40.013Z,0.80
2018-12-12T01:24:40.014Z,1.00
2018-12-12T01:25:40.016Z,2.50
2018-12-12T01:26:40.019Z,2.30
2018-12-12T01:27:40.019Z,1.50
2018-12-12T01:28:40.020Z,1.40
2018-12-12T01:29:40.021Z,1.00
2018-12-12T01:30:40.026Z,1.20
2018-12-12T01:31:40.023Z,0.90
2018-12-12T01:32:40.028Z,0.90
2018-12-12T01:33:40.028Z,1.30
2018-12-12T01:34:40.031Z,0.80
2018-12-12T01:35:40.030Z,0.90
2018-12-12T01:36:40.030Z,1.00
2018-12-12T01:37:40.035Z,0.90
2018-12-12T01:38:40.033Z,0.90
2018-12-12T01:39:40.033Z,0.80
2018-12-12T01:40:40.040Z,0.90
2018-12-12T01:41:40.037Z,0.80
2018-12-12T01:42:40.039Z,0.80
2018-12-12T01:43:40.039Z,0.80
2018-12-12T01:44:40.041Z,0.90
2018-12-12T01:45:40.043Z,0.80
2018-12-12T01:46:40.047Z,0.80
2018-12-12T01:47:40.045Z,0.70
2018-12-12T01:48:40.043Z,0.90
2018-12-12T01:49:40.047Z,0.90
2018-12-12T01:50:40.049Z,1.00
2018-12-12T01:51:40.046Z,1.20
2018-12-12T01:52:40.049Z,1.20
2018-12-12T01:53:40.052Z,1.30
2018-12-12T01:54:40.052Z,1.10
2018-12-12T01:55:40.052Z,1.00
2018-12-12T01:56:40.053Z,0.80
2018-12-12T01:57:40.059Z,0.80
2018-12-12T01:58:40.058Z,0.90
2018-12-12T01:59:40.058Z,0.70
2018-12-12T02:00:40.057Z,0.80
2018-12-12T02:01:40.057Z,0.70
2018-12-12T02:02:40.060Z,0.70
2018-12-12T02:03:40.062Z,0.70
2018-12-12T02:04:40.063Z,0.60
2018-12-12T02:05:40.061Z,0.60
2018-12-12T02:06:40.067Z,0.60
2018-12-12T02:07:40.069Z,0.60
2018-12-12T02:08:40.063Z,0.60
2018-12-12T02:09:40.070Z,0.60
2018-12-12T02:10:40.066Z,0.60
2018-12-12T02:11:40.070Z,0.60
2018-12-12T02:12:40.071Z,0.70
2018-12-12T02:13:40.072Z,0.70
2018-12-12T02:14:40.072Z,0.70
2018-12-12T02:15:40.079Z,0.60
2018-12-12T02:16:40.071Z,0.60
2018-12-12T02:17:40.073Z,0.60
2018-12-12T02:18:40.077Z,0.60
2018-12-12T02:19:40.072Z,0.60
2018-12-12T02:20:40.074Z,0.60
2018-12-12T02:21:40.080Z,0.60
2018-12-12T02:22:40.077Z,0.60
2018-12-12T02:23:40.078Z,0.70
2018-12-12T02:24:40.078Z,0.60
2018-12-12T02:25:40.079Z,0.80
2018-12-12T02:26:40.080Z,0.70
2018-12-12T02:27:40.080Z,0.60
2018-12-12T02:28:40.082Z,0.70
2018-12-12T02:29:40.081Z,0.60
2018-12-12T02:30:40.083Z,0.60
2018-12-12T02:31:40.085Z,0.70
2018-12-12T02:32:40.083Z,0.60
2018-12-12T02:33:40.091Z,0.60
2018-12-12T02:34:40.090Z,0.60
2018-12-12T02:35:40.090Z,0.60
2018-12-12T02:36:40.090Z,0.60
2018-12-12T02:37:40.089Z,0.60
2018-12-12T02:38:40.094Z,0.80
2018-12-12T02:39:40.093Z,0.70
2018-12-12T02:40:40.094Z,0.80
2018-12-12T02:41:40.098Z,0.80
2018-12-12T02:42:40.097Z,0.70
2018-12-12T02:43:40.096Z,0.70
2018-12-12T02:44:40.097Z,0.70
2018-12-12T02:45:40.102Z,0.60
2018-12-12T02:46:40.102Z,0.60
2018-12-12T02:47:40.101Z,0.70
2018-12-12T02:48:40.106Z,0.70
2018-12-12T02:49:40.104Z,0.60
2018-12-12T02:50:40.105Z,0.70
2018-12-12T02:51:40.106Z,0.60
2018-12-12T02:52:40.109Z,0.60
2018-12-12T02:53:40.118Z,0.70
2018-12-12T02:54:40.107Z,0.80
2018-12-12T02:55:40.109Z,0.60
2018-12-12T02:56:40.115Z,0.60
2018-12-12T02:57:40.121Z,0.70
2018-12-12T02:58:40.118Z,0.60
2018-12-12T02:59:40.114Z,0.80
2018-12-12T03:00:40.115Z,0.80
2018-12-12T03:01:40.116Z,0.70
2018-12-12T03:02:40.119Z,0.70
2018-12-12T03:03:40.123Z,0.70
2018-12-12T03:04:40.118Z,0.80
2018-12-12T03:05:40.122Z,0.80
2018-12-12T03:06:40.123Z,0.80
2018-12-12T03:07:40.126Z,0.90
2018-12-12T03:08:40.121Z,0.80
2018-12-12T03:09:40.124Z,0.60
2018-12-12T03:10:40.124Z,0.80
2018-12-12T03:11:40.126Z,0.60
2018-12-12T03:12:40.131Z,0.80
2018-12-12T03:13:40.131Z,0.70
2018-12-12T03:14:40.129Z,0.60
2018-12-12T03:15:40.131Z,0.60
2018-12-12T03:16:40.133Z,0.60
2018-12-12T03:17:40.131Z,0.60
2018-12-12T03:18:40.134Z,0.60
2018-12-12T03:19:40.145Z,0.60
2018-12-12T03:20:40.140Z,0.70
2018-12-12T03:21:40.140Z,0.70
2018-12-12T03:22:40.140Z,0.70
2018-12-12T03:23:40.140Z,0.80
2018-12-12T03:24:40.143Z,0.80
2018-12-12T03:25:40.143Z,0.90
2018-12-12T03:26:40.142Z,0.90
2018-12-12T03:27:40.143Z,0.80
2018-12-12T03:28:40.144Z,0.70
2018-12-12T03:29:40.146Z,0.70
2018-12-12T03:30:40.149Z,0.90
2018-12-12T03:31:40.154Z,0.80
2018-12-12T03:32:40.154Z,0.60
2018-12-12T03:33:40.158Z,0.80
2018-12-12T03:34:40.152Z,0.60
2018-12-12T03:35:40.154Z,0.70
2018-12-12T03:36:40.156Z,0.70
2018-12-12T03:37:40.159Z,0.70
2018-12-12T03:38:40.166Z,0.70
2018-12-12T03:39:40.159Z,0.70
2018-12-12T03:40:40.161Z,0.70
2018-12-12T03:41:40.162Z,0.60
2018-12-12T03:42:40.166Z,0.70
2018-12-12T03:43:40.164Z,0.70
2018-12-12T03:44:40.167Z,0.60
2018-12-12T03:45:40.165Z,0.60
2018-12-12T03:46:40.167Z,0.60
2018-12-12T03:47:40.167Z,0.70
2018-12-12T03:48:40.168Z,0.70
2018-12-12T03:49:40.171Z,0.60
2018-12-12T03:50:40.173Z,0.60
2018-12-12T03:51:40.172Z,0.80
2018-12-12T03:52:40.174Z,0.70
2018-12-12T03:53:40.175Z,0.70
2018-12-12T03:54:40.180Z,0.70
2018-12-12T03:55:40.175Z,0.70
2018-12-12T03:56:40.180Z,0.80
2018-12-12T03:57:40.180Z,0.90
2018-12-12T03:58:40.180Z,0.80
2018-12-12T03:59:40.181Z,0.80
2018-12-12T04:00:40.186Z,0.90
2018-12-12T04:01:40.186Z,0.80
2018-12-12T04:02:40.187Z,0.70
2018-12-12T04:03:40.189Z,0.80
2018-12-12T04:04:40.190Z,0.70
2018-12-12T04:05:40.191Z,0.80
2018-12-12T04:06:40.190Z,0.80
2018-12-12T04:07:40.194Z,0.70
2018-12-12T04:08:40.193Z,0.70
2018-12-12T04:09:40.199Z,0.70
2018-12-12T04:10:40.197Z,0.70
2018-12-12T04:11:40.196Z,1.00
2018-12-12T04:12:40.195Z,0.80
2018-12-12T04:13:40.199Z,0.70
2018-12-12T04:14:40.201Z,0.80
2018-12-12T04:15:40.201Z,0.90
2018-12-12T04:16:40.204Z,0.70
2018-12-12T04:17:40.204Z,0.80
2018-12-12T04:18:40.206Z,0.80
2018-12-12T04:19:40.203Z,0.70
2018-12-12T04:20:40.206Z,0.70
2018-12-12T04:21:40.208Z,0.60
2018-12-12T04:22:40.210Z,0.70
2018-12-12T04:23:40.214Z,0.60
2018-12-12T04:24:40.214Z,0.70
2018-12-12T04:25:40.217Z,0.60
2018-12-12T04:26:40.213Z,0.70
2018-12-12T04:27:40.215Z,0.60
2018-12-12T04:28:40.216Z,0.70
2018-12-12T04:29:40.223Z,0.70
2018-12-12T04:30:40.219Z,0.70
2018-12-12T04:31:40.226Z,0.70
2018-12-12T04:32:40.220Z,0.70
2018-12-12T04:33:40.224Z,0.60
2018-12-12T04:34:40.226Z,0.70
2018-12-12T04:35:40.229Z,0.70
2018-12-12T04:36:40.227Z,0.60
2018-12-12T04:37:40.228Z,0.60
2018-12-12T04:38:40.229Z,0.60
2018-12-12T04:39:40.231Z,0.70
2018-12-12T04:40:40.232Z,0.70
2018-12-12T04:41:40.236Z,0.70
2018-12-12T04:42:40.237Z,0.60
2018-12-12T04:43:40.235Z,0.60
2018-12-12T04:44:40.239Z,0.60
2018-12-12T04:45:40.238Z,0.70
2018-12-12T04:46:40.241Z,0.60
2018-12-12T04:47:40.240Z,0.60
2018-12-12T04:48:40.240Z,0.60
2018-12-12T04:49:40.244Z,0.70
2018-12-12T04:50:40.245Z,0.70
2018-12-12T04:51:40.248Z,0.70
2018-12-12T04:52:40.246Z,0.80
2018-12-12T04:53:40.246Z,0.60
2018-12-12T04:54:40.248Z,0.60
2018-12-12T04:55:40.249Z,0.60
2018-12-12T04:56:40.250Z,0.70
2018-12-12T04:57:40.255Z,0.60
2018-12-12T04:58:40.252Z,0.70
2018-12-12T04:59:40.253Z,0.60
2018-12-12T05:00:40.255Z,0.70
2018-12-12T05:01:40.256Z,0.60
2018-12-12T05:02:40.256Z,0.60
2018-12-12T05:03:40.257Z,0.70
2018-12-12T05:04:40.261Z,0.60
2018-12-12T05:05:40.260Z,0.70
2018-12-12T05:06:40.262Z,0.70
2018-12-12T05:07:40.265Z,0.70
2018-12-12T05:08:40.265Z,0.70
2018-12-12T05:09:40.265Z,0.60
2018-12-12T05:10:40.268Z,0.60
2018-12-12T05:11:40.268Z,0.60
2018-12-12T05:12:40.269Z,0.60
2018-12-12T05:13:40.269Z,0.70
2018-12-12T05:14:40.272Z,0.60
2018-12-12T05:15:40.273Z,0.70
2018-12-12T05:16:40.273Z,0.60
2018-12-12T05:17:40.282Z,1.00
2018-12-12T05:18:40.277Z,1.50
2018-12-12T05:19:40.277Z,0.90
2018-12-12T05:20:40.276Z,0.70
2018-12-12T05:21:40.285Z,0.80
2018-12-12T05:22:40.280Z,0.70
2018-12-12T05:23:40.282Z,0.60
2018-12-12T05:24:40.282Z,0.60
2018-12-12T05:25:40.287Z,0.60
2018-12-12T05:26:40.288Z,0.60
2018-12-12T05:27:40.286Z,0.60
2018-12-12T05:28:40.290Z,0.70
2018-12-12T05:29:40.288Z,0.60
2018-12-12T05:30:40.290Z,0.60
2018-12-12T05:31:40.292Z,0.60
2018-12-12T05:32:40.294Z,0.60
2018-12-12T05:33:40.300Z,0.60
2018-12-12T05:34:40.296Z,0.60
2018-12-12T05:35:40.296Z,0.60
2018-12-12T05:36:40.298Z,0.60
2018-12-12T05:37:40.301Z,0.60
2018-12-12T05:38:40.303Z,0.60
2018-12-12T05:39:40.302Z,0.80
2018-12-12T05:40:40.306Z,0.70
2018-12-12T05:41:40.305Z,0.70
2018-12-12T05:42:40.306Z,1.00
2018-12-12T05:43:40.307Z,1.00
2018-12-12T05:44:40.307Z,1.00
2018-12-12T05:45:40.307Z,0.90
2018-12-12T05:46:41.952Z,0.80
2018-12-12T05:47:40.312Z,0.80
2018-12-12T05:48:40.338Z,0.70
2018-12-12T05:49:40.317Z,0.70
2018-12-12T05:50:40.316Z,0.70
2018-12-12T05:51:40.320Z,0.70
2018-12-12T05:52:40.321Z,0.70
2018-12-12T05:53:40.320Z,0.60
2018-12-12T05:54:40.322Z,0.70
2018-12-12T05:55:40.321Z,0.70
2018-12-12T05:56:40.325Z,0.70
2018-12-12T05:57:40.327Z,0.70
2018-12-12T05:58:40.328Z,0.70
2018-12-12T05:59:40.330Z,0.70
2018-12-12T06:00:40.331Z,0.70
2018-12-12T06:01:40.337Z,0.70
2018-12-12T06:02:40.335Z,0.60
2018-12-12T06:03:40.390Z,0.60
2018-12-12T06:04:40.337Z,0.60
2018-12-12T06:05:40.337Z,0.60
2018-12-12T06:06:40.341Z,0.70
2018-12-12T06:07:40.339Z,0.60
2018-12-12T06:08:40.341Z,0.80
2018-12-12T06:09:40.345Z,0.70
2018-12-12T06:10:40.344Z,0.70
2018-12-12T06:11:40.347Z,0.60
2018-12-12T06:12:40.347Z,0.70
2018-12-12T06:13:40.349Z,0.60
2018-12-12T06:14:40.350Z,0.70
2018-12-12T06:15:40.351Z,0.70
2018-12-12T06:16:40.354Z,0.60
2018-12-12T06:17:40.359Z,0.60
2018-12-12T06:18:40.356Z,0.60
2018-12-12T06:19:40.356Z,0.60
2018-12-12T06:20:40.357Z,0.60
2018-12-12T06:21:40.361Z,0.60
2018-12-12T06:22:40.362Z,0.60
2018-12-12T06:23:40.360Z,0.60
2018-12-12T06:24:40.364Z,0.80
2018-12-12T06:25:40.393Z,0.60
2018-12-12T06:26:40.364Z,0.60
2018-12-12T06:27:40.364Z,0.60
2018-12-12T06:28:40.367Z,0.60
2018-12-12T06:29:40.369Z,0.60
2018-12-12T06:30:40.369Z,0.60
2018-12-12T06:31:40.368Z,0.50
2018-12-12T06:32:40.370Z,0.60
2018-12-12T06:33:40.375Z,0.60
2018-12-12T06:34:41.167Z,0.60
2018-12-12T06:35:40.374Z,0.50
2018-12-12T06:36:40.377Z,0.50
2018-12-12T06:37:40.376Z,0.70
2018-12-12T06:38:40.381Z,0.70
2018-12-12T06:39:40.381Z,0.60
2018-12-12T06:40:40.380Z,0.50
2018-12-12T06:41:40.381Z,0.60
2018-12-12T06:42:40.383Z,0.60
2018-12-12T06:43:40.384Z,0.60
2018-12-12T06:44:40.386Z,0.60
2018-12-12T06:45:40.386Z,0.60
2018-12-12T06:46:40.389Z,0.60
2018-12-12T06:47:40.389Z,0.60
2018-12-12T06:48:40.389Z,0.60
2018-12-12T06:49:40.392Z,0.60
2018-12-12T06:50:40.392Z,0.60
2018-12-12T06:51:40.391Z,0.60
2018-12-12T06:52:40.393Z,0.60
2018-12-12T06:53:40.393Z,0.70
2018-12-12T06:54:40.396Z,0.60
2018-12-12T06:55:40.396Z,0.60
2018-12-12T06:56:40.397Z,0.50
2018-12-12T06:57:40.399Z,0.60
2018-12-12T06:58:40.401Z,0.90
2018-12-12T06:59:40.400Z,0.60
2018-12-12T07:00:40.408Z,0.60
2018-12-12T07:01:40.403Z,0.60
2018-12-12T07:02:40.408Z,0.50
2018-12-12T07:03:40.407Z,0.60
2018-12-12T07:04:40.408Z,0.50
2018-12-12T07:05:40.409Z,0.60
2018-12-12T07:06:40.412Z,0.60
2018-12-12T07:07:40.412Z,0.60
2018-12-12T07:08:40.428Z,0.50
2018-12-12T07:09:40.424Z,0.60
2018-12-12T07:10:40.414Z,0.50
2018-12-12T07:11:40.417Z,0.70
2018-12-12T07:12:40.417Z,0.60
2018-12-12T07:13:40.419Z,0.60
2018-12-12T07:14:40.423Z,0.50
2018-12-12T07:15:40.420Z,0.60
2018-12-12T07:16:40.426Z,0.60
2018-12-12T07:17:40.423Z,0.70
2018-12-12T07:18:40.424Z,0.60
2018-12-12T07:19:40.425Z,0.60
2018-12-12T07:20:40.427Z,0.60
2018-12-12T07:21:40.427Z,0.60
2018-12-12T07:22:40.430Z,0.60
2018-12-12T07:23:40.431Z,0.70
2018-12-12T07:24:40.432Z,1.10
2018-12-12T07:25:40.434Z,0.90
2018-12-12T07:26:40.435Z,0.80
2018-12-12T07:27:40.435Z,0.70
2018-12-12T07:28:40.437Z,0.60
2018-12-12T07:29:40.436Z,0.60
2018-12-12T07:30:40.438Z,0.50
2018-12-12T07:31:40.439Z,0.60
2018-12-12T07:32:40.439Z,0.60
2018-12-12T07:33:40.441Z,0.90
2018-12-12T07:34:40.443Z,0.90
2018-12-12T07:35:40.450Z,1.00
2018-12-12T07:36:40.452Z,0.90
2018-12-12T07:37:40.448Z,0.80
2018-12-12T07:38:40.450Z,0.60
2018-12-12T07:39:40.448Z,0.60
2018-12-12T07:40:40.455Z,0.60
2018-12-12T07:41:40.489Z,0.70
2018-12-12T07:42:40.455Z,0.60
2018-12-12T07:43:40.458Z,0.60
2018-12-12T07:44:40.459Z,0.60
2018-12-12T07:45:40.465Z,0.70
2018-12-12T07:46:40.466Z,0.60
2018-12-12T07:47:40.463Z,0.60
2018-12-12T07:48:40.463Z,0.60
2018-12-12T07:49:40.464Z,0.60
2018-12-12T07:50:40.466Z,0.70
2018-12-12T07:51:40.470Z,0.70
2018-12-12T07:52:40.469Z,0.90
2018-12-12T07:53:40.468Z,1.00
2018-12-12T07:54:40.472Z,1.10
2018-12-12T07:55:40.472Z,1.00
2018-12-12T07:56:40.470Z,1.00
2018-12-12T07:57:40.474Z,0.90
2018-12-12T07:58:40.476Z,0.70
2018-12-12T07:59:40.477Z,0.70
2018-12-12T08:00:40.479Z,0.80
2018-12-12T08:01:40.481Z,0.80
2018-12-12T08:02:40.480Z,0.70
2018-12-12T08:03:40.483Z,0.60
2018-12-12T08:04:40.483Z,0.60
2018-12-12T08:05:40.486Z,0.60
2018-12-12T08:06:40.488Z,0.60
2018-12-12T08:07:40.488Z,0.60
2018-12-12T08:08:40.489Z,0.60
2018-12-12T08:09:40.490Z,0.70
2018-12-12T08:10:40.494Z,0.70
2018-12-12T08:11:40.494Z,0.70
2018-12-12T08:12:40.501Z,0.80
2018-12-12T08:13:40.501Z,0.90
2018-12-12T08:14:40.497Z,0.70
2018-12-12T08:15:40.501Z,0.80
2018-12-12T08:16:40.506Z,0.90
2018-12-12T08:17:40.503Z,0.90
2018-12-12T08:18:40.506Z,0.90
2018-12-12T08:19:40.506Z,0.80
2018-12-12T08:20:40.506Z,0.70
2018-12-12T08:21:40.513Z,0.70
2018-12-12T08:22:40.511Z,0.70
2018-12-12T08:23:40.512Z,0.70
2018-12-12T08:24:40.514Z,0.60
2018-12-12T08:25:40.514Z,0.60
2018-12-12T08:26:40.518Z,0.60
2018-12-12T08:27:40.520Z,0.60
2018-12-12T08:28:40.518Z,0.60
2018-12-12T08:29:40.521Z,0.60
2018-12-12T08:30:40.523Z,0.60
2018-12-12T08:31:40.524Z,0.60
2018-12-12T08:32:40.524Z,0.60
2018-12-12T08:33:40.526Z,0.80
2018-12-12T08:34:40.528Z,3.20
2018-12-12T08:35:40.530Z,4.80
2018-12-12T08:36:40.539Z,4.40
2018-12-12T08:37:40.533Z,2.60
2018-12-12T08:38:40.536Z,1.70
2018-12-12T08:39:40.536Z,1.20
2018-12-12T08:40:40.542Z,1.10
2018-12-12T08:41:40.543Z,0.90
2018-12-12T08:42:40.545Z,0.80
2018-12-12T08:43:40.550Z,0.90
2018-12-12T08:44:40.552Z,0.80
2018-12-12T08:45:40.558Z,0.80
2018-12-12T08:46:40.558Z,0.80
2018-12-12T08:47:40.572Z,0.60
2018-12-12T08:48:40.574Z,0.70
2018-12-12T08:49:40.568Z,0.60
2018-12-12T08:50:40.596Z,0.70
2018-12-12T08:51:40.604Z,0.70
2018-12-12T08:52:40.583Z,0.70
2018-12-12T08:53:40.585Z,0.70
2018-12-12T08:54:40.591Z,0.70
2018-12-12T08:55:40.593Z,0.70
2018-12-12T08:56:40.597Z,0.60
2018-12-12T08:57:40.601Z,0.70
2018-12-12T08:58:40.606Z,0.70
2018-12-12T08:59:40.611Z,0.70
2018-12-12T09:00:40.615Z,0.60
2018-12-12T09:01:40.619Z,0.70
2018-12-12T09:02:40.625Z,0.70
2018-12-12T09:03:40.633Z,0.70
2018-12-12T09:04:40.642Z,0.70
2018-12-12T09:05:40.638Z,0.80
2018-12-12T09:06:40.648Z,0.90
2018-12-12T09:07:40.651Z,1.10
2018-12-12T09:08:40.654Z,0.90
2018-12-12T09:09:40.666Z,0.90
2018-12-12T09:10:40.665Z,0.80
2018-12-12T09:11:40.671Z,0.90
2018-12-12T09:12:40.676Z,0.80
2018-12-12T09:13:40.682Z,0.80
2018-12-12T09:14:40.687Z,0.70
2018-12-12T09:15:40.691Z,0.80
2018-12-12T09:16:40.697Z,0.80
2018-12-12T09:17:40.702Z,0.80
2018-12-12T09:18:40.715Z,0.80
2018-12-12T09:19:40.714Z,0.80
2018-12-12T09:20:40.719Z,0.80
2018-12-12T09:21:40.724Z,0.80
2018-12-12T09:22:40.731Z,0.80
2018-12-12T09:23:40.736Z,0.70
2018-12-12T09:24:40.743Z,0.80
2018-12-12T09:25:40.748Z,0.70
2018-12-12T09:26:40.756Z,0.80
2018-12-12T09:27:40.763Z,0.80
2018-12-12T09:28:40.766Z,0.70
2018-12-12T09:29:40.783Z,0.80
2018-12-12T09:30:40.790Z,0.80
2018-12-12T09:31:40.783Z,0.80
2018-12-12T09:32:40.787Z,0.80
2018-12-12T09:33:40.795Z,0.70
2018-12-12T09:34:40.798Z,0.80
2018-12-12T09:35:40.807Z,0.80
2018-12-12T09:36:40.813Z,0.60
2018-12-12T09:37:40.821Z,0.80
2018-12-12T09:38:40.823Z,0.80
2018-12-12T09:39:40.830Z,0.70
2018-12-12T09:40:40.838Z,1.00
2018-12-12T09:41:40.847Z,0.70
2018-12-12T09:42:40.850Z,0.60
2018-12-12T09:43:40.856Z,0.70
2018-12-12T09:44:40.861Z,0.70
2018-12-12T09:45:40.869Z,0.70
2018-12-12T09:46:40.873Z,0.60
2018-12-12T09:47:40.885Z,0.60
2018-12-12T09:48:40.892Z,0.80
2018-12-12T09:49:40.901Z,0.70
2018-12-12T09:50:40.906Z,0.70
2018-12-12T09:51:40.910Z,0.70
2018-12-12T09:52:40.916Z,0.60
2018-12-12T09:53:40.918Z,0.80
2018-12-12T09:54:40.928Z,0.70
2018-12-12T09:55:40.938Z,0.70
2018-12-12T09:56:40.943Z,0.60
2018-12-12T09:57:40.948Z,0.60
2018-12-12T09:58:40.959Z,0.60
2018-12-12T09:59:40.961Z,0.60
2018-12-12T10:00:40.968Z,0.60
2018-12-12T10:01:40.978Z,0.70
2018-12-12T10:02:40.986Z,0.60
2018-12-12T10:03:40.997Z,0.70
2018-12-12T10:04:40.999Z,0.70
2018-12-12T10:05:41.004Z,0.70
2018-12-12T10:06:41.013Z,0.60
2018-12-12T10:07:41.021Z,0.60
2018-12-12T10:08:41.029Z,0.70
2018-12-12T10:09:41.035Z,0.70
2018-12-12T10:10:41.047Z,0.60
2018-12-12T10:11:41.050Z,0.60
2018-12-12T10:12:41.062Z,0.60
2018-12-12T10:13:41.068Z,0.60
2018-12-12T10:14:41.076Z,0.90
2018-12-12T10:15:41.082Z,0.60
2018-12-12T10:16:41.093Z,0.70
2018-12-12T10:17:41.099Z,0.70
2018-12-12T10:18:41.111Z,0.60
2018-12-12T10:19:41.117Z,0.60
2018-12-12T10:20:41.127Z,0.60
2018-12-12T10:21:41.137Z,0.70
2018-12-12T10:22:41.145Z,0.60
2018-12-12T10:23:41.152Z,0.70
2018-12-12T10:24:41.165Z,0.60
2018-12-12T10:25:41.170Z,0.60
2018-12-12T10:26:41.179Z,0.60
2018-12-12T10:27:41.188Z,0.60
2018-12-12T10:28:41.195Z,0.70
2018-12-12T10:29:41.207Z,0.60
2018-12-12T10:30:41.216Z,0.60
2018-12-12T10:31:41.225Z,0.60
2018-12-12T10:32:41.237Z,0.70
2018-12-12T10:33:41.245Z,0.60
2018-12-12T10:34:41.253Z,0.60
2018-12-12T10:35:41.264Z,0.60
2018-12-12T10:36:41.272Z,0.60
2018-12-12T10:37:41.283Z,0.60
2018-12-12T10:38:41.298Z,0.70
2018-12-12T10:39:41.301Z,0.60
2018-12-12T10:40:41.316Z,0.60
2018-12-12T10:41:41.321Z,0.60
2018-12-12T10:42:41.336Z,0.60
2018-12-12T10:43:41.340Z,0.60
2018-12-12T10:44:41.354Z,0.60
2018-12-12T10:45:41.362Z,0.60
2018-12-12T10:46:41.378Z,0.60
2018-12-12T10:47:41.384Z,0.70
2018-12-12T10:48:41.390Z,0.60
2018-12-12T10:49:41.402Z,0.60
2018-12-12T10:50:41.414Z,0.70
2018-12-12T10:51:41.429Z,0.70
2018-12-12T10:52:41.433Z,0.70
2018-12-12T10:53:41.445Z,0.70
2018-12-12T10:54:41.457Z,0.70
2018-12-12T10:55:41.465Z,0.70
2018-12-12T10:56:41.476Z,0.80
2018-12-12T10:57:41.487Z,0.60
2018-12-12T10:58:41.498Z,0.60
2018-12-12T10:59:41.509Z,0.70
2018-12-12T11:00:41.523Z,0.60
2018-12-12T11:01:41.534Z,0.70
2018-12-12T11:02:41.543Z,0.70
2018-12-12T11:03:44.301Z,0.70
2018-12-12T11:04:41.561Z,0.60
2018-12-12T11:05:41.574Z,0.80
2018-12-12T11:06:41.584Z,0.70
2018-12-12T11:07:41.596Z,0.80
2018-12-12T11:08:41.604Z,0.90
2018-12-12T11:09:41.618Z,0.80
2018-12-12T11:10:41.627Z,0.70
2018-12-12T11:11:41.636Z,0.70
2018-12-12T11:12:41.647Z,0.60
2018-12-12T11:13:41.658Z,0.70
2018-12-12T11:14:41.671Z,0.70
2018-12-12T11:15:41.681Z,0.70
2018-12-12T11:16:41.693Z,0.70
2018-12-12T11:17:41.703Z,0.70
2018-12-12T11:18:41.717Z,0.70
2018-12-12T11:19:41.724Z,0.70
2018-12-12T11:20:41.734Z,0.70
2018-12-12T11:21:41.751Z,0.70
2018-12-12T11:22:41.766Z,0.60
2018-12-12T11:23:41.768Z,0.70
2018-12-12T11:24:41.779Z,0.80
2018-12-12T11:25:41.792Z,0.70
2018-12-12T11:26:41.800Z,0.90
2018-12-12T11:27:41.808Z,0.70
2018-12-12T11:28:41.818Z,0.70
2018-12-12T11:29:41.830Z,0.70
2018-12-12T11:30:41.843Z,0.70
2018-12-12T11:31:41.854Z,0.70
2018-12-12T11:32:41.865Z,0.70
2018-12-12T11:33:41.876Z,0.80
2018-12-12T11:34:41.893Z,0.70
2018-12-12T11:35:41.897Z,0.60
2018-12-12T11:36:41.907Z,0.60
2018-12-12T11:37:41.922Z,0.70
2018-12-12T11:38:41.932Z,0.60
2018-12-12T11:39:41.940Z,0.60
2018-12-12T11:40:41.953Z,0.70
2018-12-12T11:41:41.966Z,0.70
2018-12-12T11:42:41.976Z,0.70
2018-12-12T11:43:41.987Z,0.60
2018-12-12T11:44:41.998Z,0.70
2018-12-12T11:45:42.009Z,0.60
2018-12-12T11:46:42.021Z,0.70
2018-12-12T11:47:42.030Z,0.70
2018-12-12T11:48:42.047Z,0.80
2018-12-12T11:49:42.059Z,0.80
2018-12-12T11:50:42.066Z,0.80
2018-12-12T11:51:42.079Z,0.70
2018-12-12T11:52:42.089Z,0.80
2018-12-12T11:53:42.103Z,0.90
2018-12-12T11:54:42.112Z,0.70
2018-12-12T11:55:42.125Z,0.90
2018-12-12T11:56:42.137Z,0.80
2018-12-12T11:57:42.151Z,0.80
2018-12-12T11:58:42.158Z,0.90
2018-12-12T11:59:42.172Z,1.00
2018-12-12T12:00:42.182Z,0.70
2018-12-12T12:01:42.221Z,0.90
2018-12-12T12:02:42.210Z,0.90
2018-12-12T12:03:42.218Z,0.70
2018-12-12T12:04:42.229Z,0.90
2018-12-12T12:05:42.245Z,0.80
2018-12-12T12:06:42.261Z,0.90
2018-12-12T12:07:42.265Z,0.80
2018-12-12T12:08:42.275Z,0.80
2018-12-12T12:09:42.293Z,0.90
2018-12-12T12:10:42.303Z,0.70
2018-12-12T12:11:42.316Z,0.90
2018-12-12T12:12:42.324Z,0.80
2018-12-12T12:13:42.339Z,0.80
2018-12-12T12:14:42.349Z,0.90
2018-12-12T12:15:42.359Z,0.80
2018-12-12T12:16:42.372Z,0.90
2018-12-12T12:17:42.390Z,1.00
2018-12-12T12:18:42.396Z,0.90
2018-12-12T12:19:42.407Z,0.80
2018-12-12T12:20:42.423Z,0.80
2018-12-12T12:21:42.432Z,0.90
2018-12-12T12:22:42.445Z,0.90
2018-12-12T12:23:42.456Z,0.80
2018-12-12T12:24:42.467Z,0.80
2018-12-12T12:25:42.479Z,0.90
2018-12-12T12:26:42.493Z,0.90
2018-12-12T12:27:42.504Z,0.80
2018-12-12T12:28:42.517Z,0.80
2018-12-12T12:29:42.528Z,0.90
2018-12-12T12:30:42.539Z,0.70
2018-12-12T12:31:42.550Z,0.90
2018-12-12T12:32:42.563Z,0.70
2018-12-12T12:33:42.579Z,0.70
2018-12-12T12:34:42.626Z,0.60
2018-12-12T12:35:42.655Z,0.80
2018-12-12T12:36:42.614Z,0.70
2018-12-12T12:37:42.628Z,0.70
2018-12-12T12:38:42.633Z,0.70
2018-12-12T12:39:42.644Z,0.60
2018-12-12T12:40:42.658Z,0.70
2018-12-12T12:41:42.668Z,0.60
2018-12-12T12:42:42.681Z,0.60
2018-12-12T12:43:42.692Z,0.70
2018-12-12T12:44:42.703Z,0.60
2018-12-12T12:45:42.718Z,0.70
2018-12-12T12:46:42.728Z,0.60
2018-12-12T12:47:42.738Z,0.60
2018-12-12T12:48:42.751Z,0.60
2018-12-12T12:49:42.762Z,0.70
2018-12-12T12:50:44.130Z,0.70
2018-12-12T12:51:42.796Z,0.70
2018-12-12T12:52:42.801Z,0.70
2018-12-12T12:53:42.810Z,0.80
2018-12-12T12:54:42.823Z,0.70
2018-12-12T12:55:42.835Z,0.80
2018-12-12T12:56:42.847Z,0.70
2018-12-12T12:57:42.859Z,0.70
2018-12-12T12:58:42.873Z,0.70
2018-12-12T12:59:42.883Z,0.70
2018-12-12T13:00:42.904Z,0.70
2018-12-12T13:01:42.913Z,0.70
2018-12-12T13:02:42.921Z,0.60
2018-12-12T13:03:42.940Z,0.80
2018-12-12T13:04:42.946Z,0.70
2018-12-12T13:05:42.960Z,0.70
2018-12-12T13:06:42.971Z,0.70
2018-12-12T13:07:42.980Z,0.70
2018-12-12T13:08:42.995Z,0.70
2018-12-12T13:09:43.006Z,0.60
2018-12-12T13:10:43.021Z,0.70
2018-12-12T13:11:43.030Z,0.70
2018-12-12T13:12:43.040Z,0.70
2018-12-12T13:13:43.054Z,0.60
2018-12-12T13:14:43.069Z,0.70
2018-12-12T13:15:43.080Z,0.70
2018-12-12T13:16:43.089Z,0.70
2018-12-12T13:17:43.101Z,0.80
2018-12-12T13:18:43.115Z,0.70